Time;durP1;ratioP1;P1;durP2;ratioP2;P2;SDS_P1;SDS_P2;PMS_P1;PMS_P2;Temp;Humidity;BMP_temperature;BMP_pressure;BME280_temperature;BME280_humidity;BME280_pressure;Samples;Min_cycle;Max_cycle;Signal;HPM_P1;HPM_P2
2023/01/05 00:02:11;;;;;;;27.25;4.82;;;10.30;99.90;;;;;;5052683;28;20065;-64
2023/01/05 00:04:37;;;;;;;31.05;4.82;;;10.30;99.90;;;;;;5042151;28;20028;-64
2023/01/05 00:07:02;;;;;;;34.40;5.85;;;10.20;99.90;;;;;;5051118;28;20068;-64
2023/01/05 00:09:28;;;;;;;28.33;4.55;;;10.20;99.90;;;;;;5052709;28;20037;-65
2023/01/05 00:23:01;;;;;;;28.45;5.07;;;10.20;99.90;;;;;;5044024;28;20506;-64
2023/01/05 00:25:29;;;;;;;23.55;4.85;;;10.20;99.90;;;;;;5052942;28;20491;-65
2023/01/05 00:27:57;;;;;;;28.08;5.32;;;10.30;99.90;;;;;;5044669;28;20049;-64
2023/01/05 00:30:29;;;;;;;37.50;5.35;;;10.20;99.90;;;;;;5041548;28;20087;-65
2023/01/05 00:32:54;;;;;;;36.70;5.20;;;10.30;99.90;;;;;;5052510;28;20049;-64
2023/01/05 00:35:21;;;;;;;29.02;5.43;;;10.20;99.90;;;;;;5052764;28;20063;-64
2023/01/05 00:37:47;;;;;;;29.48;5.15;;;10.30;99.90;;;;;;5041057;28;20040;-65
2023/01/05 00:40:15;;;;;;;29.02;5.20;;;10.30;99.90;;;;;;5051657;28;20037;-65
2023/01/05 00:42:41;;;;;;;28.85;5.63;;;10.30;99.90;;;;;;5052380;28;20116;-65
2023/01/05 00:45:09;;;;;;;25.60;5.35;;;10.30;99.90;;;;;;5032002;28;20214;-65
2023/01/05 00:47:35;;;;;;;27.35;4.63;;;10.30;99.90;;;;;;5038697;28;20070;-65
2023/01/05 00:50:01;;;;;;;27.27;4.15;;;10.40;99.90;;;;;;5051906;28;20032;-65
2023/01/05 00:52:26;;;;;;;24.05;4.30;;;10.40;99.90;;;;;;5048881;28;20102;-64
2023/01/05 00:54:52;;;;;;;31.90;5.47;;;10.40;99.90;;;;;;5044928;28;20037;-65
2023/01/05 00:57:17;;;;;;;29.67;4.85;;;10.40;99.90;;;;;;5051937;28;20479;-65
2023/01/05 00:59:43;;;;;;;30.42;5.07;;;10.50;99.90;;;;;;5051924;28;20072;-65
2023/01/05 01:02:09;;;;;;;32.05;5.47;;;10.50;99.90;;;;;;5029671;28;20049;-65
2023/01/05 01:04:35;;;;;;;29.55;5.35;;;10.50;99.90;;;;;;5042926;28;20466;-65
2023/01/05 01:07:01;;;;;;;31.73;5.85;;;10.60;99.90;;;;;;5051678;28;20073;-65
2023/01/05 01:09:27;;;;;;;29.60;5.15;;;10.70;99.90;;;;;;5031194;28;20033;-65
2023/01/05 01:11:53;;;;;;;36.58;5.53;;;10.70;99.90;;;;;;5050359;28;20041;-65
2023/01/05 01:14:19;;;;;;;28.27;4.38;;;10.70;99.90;;;;;;5051604;28;20025;-65
2023/01/05 01:16:45;;;;;;;29.80;4.57;;;10.70;99.90;;;;;;5052060;28;20039;-65
2023/01/05 01:19:29;;;;;;;31.80;5.07;;;10.70;99.90;;;;;;5047784;28;20036;-65
2023/01/05 01:21:55;;;;;;;32.47;5.50;;;10.70;99.90;;;;;;5037142;28;20132;-65
2023/01/05 01:24:23;;;;;;;35.50;5.63;;;10.70;99.90;;;;;;5051291;28;20116;-65
2023/01/05 01:26:49;;;;;;;34.33;5.00;;;10.70;99.90;;;;;;5046251;28;20073;-65
2023/01/05 01:29:18;;;;;;;28.50;4.72;;;10.70;99.90;;;;;;5042873;28;20043;-65
2023/01/05 01:31:46;;;;;;;24.95;5.03;;;10.70;99.90;;;;;;5051550;28;20063;-65
2023/01/05 01:34:12;;;;;;;29.45;5.10;;;10.70;99.90;;;;;;5034253;28;20515;-65
2023/01/05 01:36:38;;;;;;;29.05;4.88;;;10.70;99.90;;;;;;5047663;28;20068;-65
2023/01/05 01:39:03;;;;;;;32.70;5.72;;;10.70;99.90;;;;;;5050120;28;20033;-65
2023/01/05 01:41:29;;;;;;;28.13;4.32;;;10.80;99.90;;;;;;5039525;28;20056;-65
2023/01/05 01:43:56;;;;;;;22.17;4.22;;;10.80;99.90;;;;;;5046178;28;20044;-65
2023/01/05 01:46:24;;;;;;;30.90;4.75;;;10.80;99.90;;;;;;5051093;28;20040;-65
2023/01/05 01:49:04;;;;;;;29.52;6.25;;;10.80;99.90;;;;;;5050967;28;20368;-65
2023/01/05 01:51:33;;;;;;;26.85;5.03;;;10.80;99.90;;;;;;5033427;28;20048;-65
2023/01/05 01:54:01;;;;;;;28.25;4.50;;;10.80;99.90;;;;;;5038753;28;20656;-65
2023/01/05 01:56:38;;;;;;;22.80;4.47;;;10.70;99.90;;;;;;5051166;28;20032;-65
2023/01/05 01:59:04;;;;;;;29.95;4.88;;;10.70;99.90;;;;;;5051425;28;20499;-65
2023/01/05 02:01:30;;;;;;;26.25;4.63;;;10.70;99.90;;;;;;5039671;28;20087;-65
2023/01/05 02:03:56;;;;;;;23.13;4.78;;;10.70;99.90;;;;;;5048222;28;20037;-65
2023/01/05 02:06:22;;;;;;;20.20;4.22;;;10.60;99.90;;;;;;5051047;28;20061;-65
2023/01/05 02:08:48;;;;;;;32.35;6.15;;;10.60;99.90;;;;;;5051433;28;20036;-65
2023/01/05 02:11:41;;;;;;;22.88;3.95;;;10.60;99.90;;;;;;5039902;28;20117;-65
2023/01/05 02:14:43;;;;;;;22.63;4.07;;;10.70;99.90;;;;;;5049643;28;20037;-65
2023/01/05 02:17:24;;;;;;;22.70;4.65;;;10.60;99.90;;;;;;5040331;28;20029;-65
2023/01/05 02:20:26;;;;;;;27.60;4.60;;;10.50;99.90;;;;;;5042934;28;20190;-65
2023/01/05 02:23:18;;;;;;;33.25;5.25;;;10.60;99.90;;;;;;5050630;28;20064;-65
2023/01/05 02:26:19;;;;;;;24.65;5.00;;;10.60;99.90;;;;;;5003707;28;20041;-65
2023/01/05 02:29:13;;;;;;;32.75;4.55;;;10.70;99.90;;;;;;5046657;28;20113;-65
2023/01/05 02:32:00;;;;;;;25.42;4.47;;;10.70;99.90;;;;;;5030982;28;20041;-65
2023/01/05 02:34:46;;;;;;;21.45;4.18;;;10.70;99.90;;;;;;5035280;28;20040;-65
2023/01/05 02:37:23;;;;;;;24.65;6.35;;;10.70;99.90;;;;;;5049974;28;20069;-65
2023/01/05 02:39:56;;;;;;;19.85;4.20;;;10.60;99.90;;;;;;5051215;28;20135;-65
2023/01/05 02:42:23;;;;;;;20.83;4.32;;;10.60;99.90;;;;;;5039814;28;20029;-65
2023/01/05 02:44:50;;;;;;;27.30;4.30;;;10.60;99.90;;;;;;5023873;28;20094;-65
2023/01/05 02:47:24;;;;;;;23.90;5.22;;;10.60;99.90;;;;;;5051036;28;20045;-65
2023/01/05 02:49:54;;;;;;;24.40;4.80;;;10.70;99.90;;;;;;5036990;28;20042;-65
2023/01/05 02:52:20;;;;;;;21.20;4.53;;;10.60;99.90;;;;;;5044412;28;20041;-65
2023/01/05 02:54:59;;;;;;;28.52;4.53;;;10.70;99.90;;;;;;5054390;28;20546;-65
2023/01/05 02:57:46;;;;;;;24.63;4.47;;;10.70;99.90;;;;;;5054883;28;20041;-65
2023/01/05 03:00:33;;;;;;;24.00;4.60;;;10.60;99.90;;;;;;5043178;28;20041;-65
2023/01/05 03:03:09;;;;;;;29.35;5.03;;;10.70;99.90;;;;;;5044452;28;20049;-65
2023/01/05 03:05:40;;;;;;;25.65;4.40;;;10.70;99.90;;;;;;5054640;28;20040;-65
2023/01/05 03:08:09;;;;;;;26.48;5.10;;;10.60;99.90;;;;;;5037530;28;20041;-65
2023/01/05 03:14:05;;;;;;;27.83;4.72;;;10.60;99.90;;;;;;5054335;28;20041;-65
2023/01/05 03:16:34;;;;;;;25.88;5.40;;;10.60;99.90;;;;;;5038863;28;20044;-65
2023/01/05 03:35:44;;;;;;;24.60;3.80;;;10.50;99.90;;;;;;5031005;28;20106;-65
2023/01/05 03:38:22;;;;;;;23.83;4.28;;;10.50;99.90;;;;;;5053569;28;20141;-65
2023/01/05 03:40:52;;;;;;;30.20;4.28;;;10.50;99.90;;;;;;5045020;28;20041;-65
2023/01/05 03:43:19;;;;;;;25.17;4.18;;;10.50;99.90;;;;;;5048963;28;20041;-65
2023/01/05 03:45:51;;;;;;;19.73;3.83;;;10.50;99.90;;;;;;5053723;28;20040;-65
2023/01/05 03:48:16;;;;;;;22.45;4.25;;;10.50;99.90;;;;;;5046860;28;20045;-65
2023/01/05 03:50:42;;;;;;;23.77;4.25;;;10.40;99.90;;;;;;5051962;28;20033;-65
2023/01/05 03:53:07;;;;;;;29.73;4.82;;;10.50;99.90;;;;;;5053266;28;20041;-65
2023/01/05 03:55:33;;;;;;;30.45;5.20;;;10.50;99.90;;;;;;5053612;28;20041;-65
2023/01/05 03:57:59;;;;;;;19.55;3.75;;;10.50;99.90;;;;;;5036123;28;20041;-65
2023/01/05 04:00:25;;;;;;;22.63;4.57;;;10.50;99.90;;;;;;5052381;28;20044;-65
2023/01/05 04:02:51;;;;;;;27.67;4.18;;;10.50;99.90;;;;;;5052691;28;20118;-65
2023/01/05 04:05:16;;;;;;;26.95;4.95;;;10.50;99.90;;;;;;5047287;28;20065;-65
2023/01/05 04:07:42;;;;;;;25.50;4.15;;;10.50;99.90;;;;;;5026372;28;20694;-65
2023/01/05 04:10:08;;;;;;;20.80;4.18;;;10.50;99.90;;;;;;5052777;28;20041;-65
2023/01/05 04:12:35;;;;;;;23.88;4.32;;;10.50;99.90;;;;;;5052945;28;20041;-65
2023/01/05 04:15:02;;;;;;;26.05;3.70;;;10.50;99.90;;;;;;5039437;28;20404;-65
2023/01/05 04:17:28;;;;;;;19.60;3.83;;;10.50;99.90;;;;;;5052621;28;20029;-65
2023/01/05 04:19:53;;;;;;;25.27;4.35;;;10.50;99.90;;;;;;5052913;28;20052;-65
2023/01/05 04:22:19;;;;;;;20.70;4.63;;;10.50;99.90;;;;;;5039139;28;20045;-65
2023/01/05 04:24:44;;;;;;;19.20;4.22;;;10.50;99.90;;;;;;5049794;28;20059;-65
2023/01/05 04:27:10;;;;;;;17.38;3.53;;;10.60;99.90;;;;;;5052938;28;20044;-65
2023/01/05 04:29:36;;;;;;;22.63;4.50;;;10.60;99.90;;;;;;5039312;28;20088;-65
2023/01/05 04:32:01;;;;;;;21.05;4.30;;;10.50;99.90;;;;;;5042500;28;20050;-65
2023/01/05 04:34:27;;;;;;;21.20;4.20;;;10.50;99.90;;;;;;5052857;28;20056;-65
2023/01/05 04:36:52;;;;;;;22.30;4.38;;;10.50;99.90;;;;;;5052799;28;20615;-65
2023/01/05 04:39:18;;;;;;;18.92;3.90;;;10.50;99.90;;;;;;5048772;28;20086;-65
2023/01/05 04:41:43;;;;;;;23.98;4.13;;;10.50;99.90;;;;;;5038935;28;20407;-65
2023/01/05 04:44:09;;;;;;;25.20;4.22;;;10.60;99.90;;;;;;5051461;28;20047;-65
2023/01/05 04:46:34;;;;;;;17.30;3.38;;;10.60;99.90;;;;;;5048684;28;20206;-65
2023/01/05 04:49:00;;;;;;;25.20;4.97;;;10.60;99.90;;;;;;5044740;28;20037;-65
2023/01/05 04:51:26;;;;;;;24.05;4.28;;;10.60;99.90;;;;;;5052160;28;20032;-65
2023/01/05 04:53:51;;;;;;;21.90;4.60;;;10.60;99.90;;;;;;5051711;28;20045;-65
2023/01/05 04:56:17;;;;;;;18.73;3.05;;;10.70;99.90;;;;;;5047714;28;20040;-65
2023/01/05 04:58:43;;;;;;;27.80;4.80;;;10.60;99.90;;;;;;5034319;28;20033;-65
2023/01/05 05:01:09;;;;;;;16.65;3.97;;;10.60;99.90;;;;;;5050135;28;20414;-65
2023/01/05 05:03:34;;;;;;;26.08;4.30;;;10.60;99.90;;;;;;5048236;28;20091;-65
2023/01/05 05:06:00;;;;;;;24.48;4.07;;;10.50;99.90;;;;;;5041337;28;20044;-65
2023/01/05 05:08:25;;;;;;;25.90;4.32;;;10.50;99.90;;;;;;5050004;28;20039;-65
2023/01/05 05:10:51;;;;;;;26.95;4.05;;;10.50;99.90;;;;;;5051053;28;20033;-65
2023/01/05 05:13:17;;;;;;;23.23;4.38;;;10.50;99.90;;;;;;5050853;28;20748;-65
2023/01/05 05:15:45;;;;;;;19.50;3.80;;;10.50;99.90;;;;;;5042994;28;20652;-65
2023/01/05 05:18:11;;;;;;;25.13;4.15;;;10.50;99.90;;;;;;5049720;28;20037;-65
2023/01/05 05:20:40;;;;;;;23.40;4.20;;;10.50;99.90;;;;;;5039906;28;20029;-65
2023/01/05 05:23:05;;;;;;;24.17;4.50;;;10.50;99.90;;;;;;5047771;28;20045;-65
2023/01/05 05:25:31;;;;;;;25.83;4.63;;;10.50;99.90;;;;;;5051334;28;20376;-65
2023/01/05 05:27:57;;;;;;;23.40;4.88;;;10.50;99.90;;;;;;5042519;28;20209;-65
2023/01/05 05:30:22;;;;;;;22.58;4.97;;;10.50;99.90;;;;;;5075464;22;20041;-65
2023/01/05 05:32:48;;;;;;;25.77;4.45;;;10.50;99.90;;;;;;5030701;28;20048;-66
2023/01/05 05:35:13;;;;;;;20.20;3.80;;;10.60;99.90;;;;;;5029452;28;20090;-66
2023/01/05 05:37:39;;;;;;;21.10;4.28;;;10.60;99.90;;;;;;5016237;28;20041;-66
2023/01/05 05:40:05;;;;;;;32.90;4.47;;;10.50;99.90;;;;;;5023504;28;20048;-66
2023/01/05 05:42:31;;;;;;;28.10;4.90;;;10.50;99.90;;;;;;5019656;28;20487;-66
2023/01/05 05:44:56;;;;;;;22.73;4.43;;;10.60;99.90;;;;;;5027678;28;20082;-66
2023/01/05 05:47:22;;;;;;;29.88;4.80;;;10.60;99.90;;;;;;5028996;28;20403;-66
2023/01/05 05:49:48;;;;;;;22.77;4.40;;;10.50;99.90;;;;;;5030930;28;20037;-66
2023/01/05 05:52:13;;;;;;;26.10;4.68;;;10.50;99.90;;;;;;5030893;28;20069;-66
2023/01/05 05:54:39;;;;;;;25.25;4.70;;;10.50;99.90;;;;;;5019038;28;20515;-66
2023/01/05 05:57:05;;;;;;;21.88;4.82;;;10.50;99.90;;;;;;5029903;28;20133;-66
2023/01/05 05:59:31;;;;;;;25.13;4.63;;;10.50;99.90;;;;;;5031264;28;20116;-66
2023/01/05 06:01:56;;;;;;;18.77;3.65;;;10.50;99.90;;;;;;5016079;28;20046;-66
2023/01/05 06:04:22;;;;;;;22.48;4.88;;;10.50;99.90;;;;;;5025768;28;20033;-66
2023/01/05 06:06:48;;;;;;;19.33;4.30;;;10.60;99.90;;;;;;5031191;28;20049;-66
2023/01/05 06:09:13;;;;;;;19.63;4.32;;;10.60;99.90;;;;;;5028101;28;20045;-66
2023/01/05 06:11:39;;;;;;;27.50;4.60;;;10.60;99.90;;;;;;5011222;28;20697;-66
2023/01/05 06:14:05;;;;;;;26.88;5.00;;;10.60;99.90;;;;;;5004452;28;20037;-66
2023/01/05 06:16:31;;;;;;;23.63;4.30;;;10.60;99.90;;;;;;5031454;28;20069;-66
2023/01/05 06:18:56;;;;;;;26.27;4.63;;;10.60;99.90;;;;;;5013375;28;20116;-66
2023/01/05 06:21:22;;;;;;;33.90;4.82;;;10.60;99.90;;;;;;5015310;28;20041;-66
2023/01/05 06:23:47;;;;;;;26.35;4.63;;;10.60;99.90;;;;;;5027965;28;20511;-66
2023/01/05 06:26:13;;;;;;;26.17;4.25;;;10.60;99.90;;;;;;5032268;28;20042;-66
2023/01/05 06:28:39;;;;;;;24.33;4.72;;;10.50;99.90;;;;;;5033833;28;20080;-66
2023/01/05 06:31:04;;;;;;;23.23;4.43;;;10.60;99.90;;;;;;5023060;28;20099;-66
2023/01/05 06:33:30;;;;;;;30.95;5.07;;;10.60;99.90;;;;;;5022981;28;20037;-66
2023/01/05 06:35:57;;;;;;;24.45;4.10;;;10.50;99.90;;;;;;5038845;28;20033;-66
2023/01/05 06:38:23;;;;;;;29.45;3.85;;;10.60;99.90;;;;;;5035360;28;20076;-66
2023/01/05 06:40:49;;;;;;;22.52;4.07;;;10.60;99.90;;;;;;5039241;28;20090;-66
2023/01/05 06:43:15;;;;;;;29.35;5.03;;;10.60;99.90;;;;;;5035918;28;20041;-66
2023/01/05 06:45:40;;;;;;;22.75;3.83;;;10.50;99.90;;;;;;5037084;28;20394;-66
2023/01/05 06:48:06;;;;;;;28.70;4.90;;;10.60;99.90;;;;;;5023042;28;20049;-66
2023/01/05 06:50:32;;;;;;;22.27;5.22;;;10.60;99.90;;;;;;5042260;28;20048;-66
2023/01/05 06:52:58;;;;;;;23.58;4.60;;;10.60;99.90;;;;;;5035855;28;20285;-66
2023/01/05 06:55:24;;;;;;;23.33;3.80;;;10.70;99.90;;;;;;5036995;28;20084;-66
2023/01/05 06:57:50;;;;;;;27.52;5.00;;;10.70;99.90;;;;;;5021394;28;20499;-66
2023/01/05 07:00:16;;;;;;;23.85;3.53;;;10.60;99.90;;;;;;5040665;28;20032;-66
2023/01/05 07:02:41;;;;;;;20.58;4.07;;;10.60;99.90;;;;;;5028186;28;20037;-66
2023/01/05 07:05:07;;;;;;;22.75;4.65;;;10.60;99.90;;;;;;5041604;28;20037;-66
2023/01/05 07:07:33;;;;;;;21.02;4.07;;;10.60;99.90;;;;;;5044284;28;20061;-65
2023/01/05 07:09:59;;;;;;;25.48;4.68;;;10.60;99.90;;;;;;5025236;28;20105;-65
2023/01/05 07:12:25;;;;;;;21.95;4.28;;;10.60;99.90;;;;;;5028255;28;20037;-65
2023/01/05 07:14:50;;;;;;;20.88;4.00;;;10.60;99.90;;;;;;5034258;28;20037;-65
2023/01/05 07:17:16;;;;;;;31.73;4.78;;;10.60;99.90;;;;;;5041748;28;20036;-65
2023/01/05 07:19:42;;;;;;;20.85;4.45;;;10.60;99.90;;;;;;5027382;28;20507;-65
2023/01/05 07:22:08;;;;;;;19.70;4.32;;;10.50;99.90;;;;;;5041834;28;20055;-65
2023/01/05 07:24:34;;;;;;;18.08;4.00;;;10.50;99.90;;;;;;5042783;28;20040;-65
2023/01/05 07:27:00;;;;;;;24.10;4.85;;;10.40;99.90;;;;;;5043217;28;20033;-65
2023/01/05 07:29:26;;;;;;;22.10;4.25;;;10.40;99.90;;;;;;5035544;28;20052;-65
2023/01/05 07:31:52;;;;;;;20.92;3.65;;;10.30;99.90;;;;;;5034352;28;20041;-65
2023/01/05 07:34:21;;;;;;;20.08;3.80;;;10.30;99.90;;;;;;5034333;28;20034;-65
2023/01/05 07:36:48;;;;;;;21.85;3.85;;;10.40;99.90;;;;;;5023527;28;20045;-65
2023/01/05 07:39:14;;;;;;;22.20;4.43;;;10.40;99.90;;;;;;5031564;28;20099;-65
2023/01/05 07:41:40;;;;;;;23.40;4.45;;;10.40;99.90;;;;;;5033276;28;20120;-65
2023/01/05 07:44:06;;;;;;;29.92;5.13;;;10.50;99.90;;;;;;5033809;28;20120;-65
2023/01/05 07:46:32;;;;;;;22.80;3.85;;;10.40;99.90;;;;;;5024209;28;20080;-65
2023/01/05 07:48:58;;;;;;;28.30;4.25;;;10.40;99.90;;;;;;5024883;28;20077;-65
2023/01/05 07:51:23;;;;;;;18.20;3.67;;;10.40;99.90;;;;;;5033346;28;20029;-65
2023/01/05 07:53:49;;;;;;;25.33;4.07;;;10.40;99.90;;;;;;5026681;28;20045;-64
2023/01/05 07:56:15;;;;;;;23.95;4.13;;;10.40;99.90;;;;;;5028047;28;20029;-64
2023/01/05 07:58:41;;;;;;;24.08;4.07;;;10.40;99.90;;;;;;5026334;28;20076;-64
2023/01/05 08:01:09;;;;;;;16.85;3.17;;;10.40;99.90;;;;;;5027169;28;20102;-64
2023/01/05 08:03:35;;;;;;;24.95;4.60;;;10.30;99.90;;;;;;5030138;28;20049;-64
2023/01/05 08:06:12;;;;;;;26.33;3.65;;;10.40;99.90;;;;;;5003481;28;20060;-64
2023/01/05 08:08:38;;;;;;;24.73;3.72;;;10.40;99.90;;;;;;5014661;28;20056;-64
2023/01/05 08:11:05;;;;;;;21.08;3.50;;;10.40;99.90;;;;;;5015697;28;20499;-64
2023/01/05 08:16:15;;;;;;;21.08;3.47;;;10.40;99.90;;;;;;5018755;28;20118;-65
2023/01/05 08:18:40;;;;;;;21.05;3.83;;;10.40;99.90;;;;;;5028608;28;20565;-64
2023/01/05 08:21:07;;;;;;;27.30;4.00;;;10.40;99.90;;;;;;5028406;28;20517;-64
2023/01/05 08:23:33;;;;;;;21.92;3.97;;;10.40;99.90;;;;;;5024329;28;20052;-64
2023/01/05 08:26:04;;;;;;;27.30;4.28;;;10.40;99.90;;;;;;5011472;28;20046;-64
2023/01/05 08:28:30;;;;;;;23.63;4.68;;;10.40;99.90;;;;;;5020258;28;20036;-65
2023/01/05 08:31:17;;;;;;;27.48;3.92;;;10.50;99.90;;;;;;5019976;28;20042;-64
2023/01/05 08:33:43;;;;;;;21.38;4.13;;;10.40;99.90;;;;;;5016574;28;20049;-64
2023/01/05 08:36:14;;;;;;;24.27;5.43;;;10.50;99.90;;;;;;5014426;28;20377;-65
2023/01/05 08:38:49;;;;;;;23.15;4.78;;;10.50;99.90;;;;;;5022192;28;20036;-64
2023/01/05 08:41:17;;;;;;;21.92;3.63;;;10.50;99.90;;;;;;5019810;28;20116;-64
2023/01/05 08:43:43;;;;;;;18.05;3.95;;;10.50;99.90;;;;;;5017573;28;20519;-64
2023/01/05 08:46:08;;;;;;;22.55;4.50;;;10.50;99.90;;;;;;5022473;28;20041;-64
2023/01/05 08:48:34;;;;;;;20.77;3.80;;;10.50;99.90;;;;;;5018122;28;20048;-64
2023/01/05 08:51:02;;;;;;;21.00;4.30;;;10.50;99.90;;;;;;5024737;28;20045;-64
2023/01/05 08:53:28;;;;;;;20.52;4.20;;;10.50;99.90;;;;;;5029114;28;20083;-64
2023/01/05 08:55:54;;;;;;;26.65;4.15;;;10.50;99.90;;;;;;5017530;28;20050;-64
2023/01/05 08:58:19;;;;;;;21.38;4.13;;;10.50;99.90;;;;;;5028360;28;20037;-65
2023/01/05 09:00:45;;;;;;;27.83;4.13;;;10.50;99.90;;;;;;5023489;28;20504;-64
2023/01/05 09:03:10;;;;;;;21.33;3.60;;;10.60;99.90;;;;;;5027362;28;20034;-65
2023/01/05 09:05:36;;;;;;;20.23;4.00;;;10.60;99.90;;;;;;5028622;28;20443;-65
2023/01/05 09:08:01;;;;;;;23.30;4.20;;;10.50;99.90;;;;;;5015889;28;20041;-65
2023/01/05 09:10:27;;;;;;;21.52;3.58;;;10.60;99.90;;;;;;5023097;28;20037;-64
2023/01/05 09:12:53;;;;;;;25.80;4.25;;;10.60;99.90;;;;;;5027249;28;20033;-65
2023/01/05 09:15:18;;;;;;;21.60;3.92;;;10.60;99.90;;;;;;5013716;28;20431;-66
2023/01/05 09:17:56;;;;;;;22.27;4.03;;;10.50;99.90;;;;;;5007091;28;20037;-65
2023/01/05 09:20:22;;;;;;;18.30;3.38;;;10.60;99.90;;;;;;4994673;28;20120;-65
2023/01/05 09:22:47;;;;;;;25.85;4.43;;;10.60;99.90;;;;;;5027872;28;20128;-64
2023/01/05 09:25:13;;;;;;;22.15;3.75;;;10.60;99.90;;;;;;5027920;28;20128;-65
2023/01/05 09:27:40;;;;;;;27.60;4.50;;;10.70;99.90;;;;;;5015471;28;20684;-65
2023/01/05 09:30:06;;;;;;;24.20;3.70;;;10.60;99.90;;;;;;5025761;28;20049;-65
2023/01/05 09:32:32;;;;;;;23.60;3.25;;;10.70;99.90;;;;;;5023106;28;20084;-64
2023/01/05 09:34:58;;;;;;;26.38;4.20;;;10.70;99.90;;;;;;5019100;28;20135;-64
2023/01/05 09:37:23;;;;;;;16.88;3.65;;;10.70;99.90;;;;;;5027000;28;20032;-64
2023/01/05 09:39:49;;;;;;;17.05;4.10;;;10.70;99.90;;;;;;5010123;28;20098;-64
2023/01/05 09:42:19;;;;;;;20.98;4.03;;;10.70;99.90;;;;;;4991482;28;20041;-64
2023/01/05 09:44:53;;;;;;;35.42;4.97;;;10.80;99.90;;;;;;5013395;28;20041;-64
2023/01/05 09:47:27;;;;;;;18.58;3.88;;;10.80;99.90;;;;;;5007779;28;20076;-65
2023/01/05 09:49:55;;;;;;;20.58;4.20;;;10.80;99.90;;;;;;5019994;28;20146;-64
2023/01/05 09:52:21;;;;;;;19.33;3.13;;;10.80;99.90;;;;;;5017408;28;20091;-65
2023/01/05 09:54:47;;;;;;;22.00;4.32;;;10.80;99.90;;;;;;5025068;28;20041;-64
2023/01/05 09:57:26;;;;;;;20.60;4.07;;;10.80;99.90;;;;;;5012302;28;20092;-65
2023/01/05 09:59:59;;;;;;;19.65;3.83;;;10.80;99.90;;;;;;5005530;28;20038;-65
2023/01/05 10:02:42;;;;;;;19.73;3.67;;;10.80;99.90;;;;;;5013234;28;20100;-65
2023/01/05 10:05:12;;;;;;;18.67;3.70;;;10.80;99.90;;;;;;5015132;28;20049;-65
2023/01/05 10:08:02;;;;;;;27.48;4.18;;;10.90;99.90;;;;;;5020185;28;20137;-65
2023/01/05 10:10:43;;;;;;;20.83;4.38;;;10.80;99.90;;;;;;5018379;28;20514;-64
2023/01/05 10:13:23;;;;;;;19.52;3.83;;;10.80;99.90;;;;;;5025414;28;20503;-65
2023/01/05 10:15:52;;;;;;;21.20;3.23;;;10.80;99.90;;;;;;5021536;28;20553;-65
2023/01/05 10:18:23;;;;;;;24.48;4.25;;;10.80;99.90;;;;;;5019524;28;20268;-65
2023/01/05 10:20:49;;;;;;;19.98;3.97;;;10.80;99.90;;;;;;5013124;28;20057;-65
2023/01/05 10:23:29;;;;;;;25.05;4.15;;;10.80;99.90;;;;;;5016934;28;20048;-64
2023/01/05 10:26:09;;;;;;;18.23;3.35;;;10.80;99.90;;;;;;5020608;28;20057;-65
2023/01/05 10:28:37;;;;;;;19.83;3.75;;;10.80;99.90;;;;;;5027939;28;20041;-67
2023/01/05 10:31:29;;;;;;;21.63;3.85;;;10.80;99.90;;;;;;5022739;28;20870;-66
2023/01/05 10:34:06;;;;;;;20.48;3.60;;;10.80;99.90;;;;;;5023669;28;20048;-65
2023/01/05 10:37:11;;;;;;;26.35;4.47;;;10.90;99.90;;;;;;5027189;28;20042;-66
2023/01/05 10:40:12;;;;;;;20.20;3.88;;;10.80;99.90;;;;;;5021511;28;20116;-66
2023/01/05 10:42:39;;;;;;;26.88;4.32;;;10.80;99.90;;;;;;5020614;28;20037;-65
2023/01/05 10:45:10;;;;;;;18.52;3.47;;;10.90;99.90;;;;;;5027931;28;20455;-65
2023/01/05 10:47:37;;;;;;;19.02;3.90;;;10.90;99.90;;;;;;5021166;28;20046;-65
2023/01/05 10:50:36;;;;;;;17.95;4.70;;;11.00;99.90;;;;;;5012609;28;20469;-66
2023/01/05 10:53:18;;;;;;;15.93;3.38;;;11.00;99.90;;;;;;5031794;28;20556;-66
2023/01/05 10:55:48;;;;;;;14.05;3.22;;;11.00;99.90;;;;;;5041072;28;20041;-66
2023/01/05 10:58:31;;;;;;;16.23;3.80;;;11.00;99.90;;;;;;5019229;28;20501;-66
2023/01/05 11:01:22;;;;;;;18.08;3.75;;;11.00;99.90;;;;;;5024875;28;20053;-66
2023/01/05 11:04:07;;;;;;;19.50;3.45;;;11.00;99.90;;;;;;5027091;28;20114;-66
2023/01/05 11:06:35;;;;;;;17.58;3.80;;;11.00;99.90;;;;;;5021852;28;20081;-67
2023/01/05 11:09:09;;;;;;;16.95;3.20;;;11.00;99.90;;;;;;5027297;28;20127;-66
2023/01/05 11:11:35;;;;;;;16.23;3.17;;;11.00;99.90;;;;;;5029169;28;20079;-65
2023/01/05 11:14:01;;;;;;;19.00;3.60;;;11.10;99.90;;;;;;5023458;28;20046;-65
2023/01/05 11:16:31;;;;;;;21.58;4.13;;;11.10;99.90;;;;;;5019287;28;20116;-66
2023/01/05 11:19:03;;;;;;;16.55;3.35;;;11.10;99.90;;;;;;5030478;28;20033;-65
2023/01/05 11:21:35;;;;;;;20.63;3.83;;;11.10;99.90;;;;;;5030309;28;20570;-65
2023/01/05 11:24:02;;;;;;;22.63;4.18;;;11.10;99.90;;;;;;5023458;28;20047;-66
2023/01/05 11:26:47;;;;;;;14.00;3.33;;;11.00;99.90;;;;;;5030147;28;20495;-65
2023/01/05 11:29:14;;;;;;;17.70;3.58;;;11.00;99.90;;;;;;5030577;28;20087;-65
2023/01/05 11:32:03;;;;;;;18.73;3.60;;;11.00;99.90;;;;;;5034362;22;20477;-65
2023/01/05 11:34:40;;;;;;;18.27;3.80;;;11.00;99.90;;;;;;5028272;28;20380;-65
2023/01/05 11:37:13;;;;;;;17.92;3.70;;;11.00;99.90;;;;;;5030648;28;20031;-65
2023/01/05 11:39:45;;;;;;;19.42;3.55;;;11.00;99.90;;;;;;5027136;28;20068;-65
2023/01/05 11:42:21;;;;;;;17.42;4.28;;;11.10;99.90;;;;;;5028160;28;20045;-65
2023/01/05 11:44:55;;;;;;;17.92;3.40;;;11.10;99.90;;;;;;5012439;28;20096;-64
2023/01/05 11:47:22;;;;;;;19.65;3.80;;;11.10;99.90;;;;;;5010111;28;20037;-64
2023/01/05 11:49:56;;;;;;;12.93;3.42;;;11.10;99.90;;;;;;5017292;28;20137;-64
2023/01/05 11:52:31;;;;;;;18.98;4.38;;;11.10;99.90;;;;;;5030203;28;20441;-64
2023/01/05 11:54:57;;;;;;;14.80;3.60;;;11.10;99.90;;;;;;5047995;28;20048;-65
2023/01/05 11:57:23;;;;;;;13.13;3.60;;;11.10;99.90;;;;;;5041379;28;20041;-65
2023/01/05 11:59:54;;;;;;;21.75;3.70;;;11.10;99.90;;;;;;5012106;28;20466;-65
2023/01/05 12:02:26;;;;;;;18.60;3.67;;;11.10;99.90;;;;;;5019512;28;20060;-64
2023/01/05 12:05:17;;;;;;;20.00;3.83;;;11.10;99.90;;;;;;5014557;28;20037;-65
2023/01/05 12:08:00;;;;;;;15.25;3.67;;;11.10;99.90;;;;;;5015301;28;20042;-65
2023/01/05 12:10:46;;;;;;;18.30;3.22;;;11.10;99.90;;;;;;5028935;28;20041;-64
2023/01/05 12:13:43;;;;;;;19.50;3.33;;;11.10;99.90;;;;;;5029179;28;20152;-66
2023/01/05 12:16:15;;;;;;;20.67;4.03;;;11.10;99.90;;;;;;5016802;28;20220;-64
2023/01/05 12:18:59;;;;;;;;;;;11.00;99.90;;;;;;5011960;28;20033;-64
2023/01/05 12:21:33;;;;;;;15.63;3.47;;;11.00;99.90;;;;;;5017244;28;19921;-64
2023/01/05 12:24:04;;;;;;;18.08;3.40;;;10.90;99.90;;;;;;5019300;28;20551;-64
2023/01/05 12:26:57;;;;;;;19.88;4.07;;;10.90;99.90;;;;;;5027946;28;20049;-65
2023/01/05 12:29:41;;;;;;;22.65;4.78;;;10.80;99.90;;;;;;5027285;28;20041;-65
2023/01/05 12:32:19;;;;;;;20.05;5.10;;;10.80;99.90;;;;;;5015532;28;20050;-65
2023/01/05 12:34:59;;;;;;;21.55;4.50;;;10.70;99.90;;;;;;5027454;28;20040;-65
2023/01/05 12:37:43;;;;;;;15.85;4.22;;;10.70;99.90;;;;;;5018010;28;20488;-65
2023/01/05 12:40:36;;;;;;;20.35;4.07;;;10.60;99.90;;;;;;5017883;28;20049;-65
2023/01/05 12:43:25;;;;;;;20.83;3.63;;;10.50;99.90;;;;;;5028299;28;20045;-65
2023/01/05 12:45:50;;;;;;;18.92;3.80;;;10.50;99.90;;;;;;5024319;28;20052;-65
2023/01/05 12:48:37;;;;;;;21.25;4.97;;;10.50;99.90;;;;;;5015361;28;20037;-65
2023/01/05 12:51:35;;;;;;;16.13;3.67;;;10.50;99.90;;;;;;5026899;28;20045;-65
2023/01/05 12:54:08;;;;;;;19.70;4.43;;;10.50;99.90;;;;;;5015574;28;20096;-66
2023/01/05 12:56:45;;;;;;;22.02;5.05;;;10.50;99.90;;;;;;5022554;28;20119;-65
2023/01/05 12:59:27;;;;;;;23.55;4.43;;;10.50;99.90;;;;;;5027612;28;20065;-65
2023/01/05 13:02:13;;;;;;;23.48;4.50;;;10.60;99.90;;;;;;5024809;28;20490;-65
2023/01/05 13:04:48;;;;;;;25.15;4.25;;;10.60;99.90;;;;;;5008507;28;20093;-65
2023/01/05 13:07:33;;;;;;;20.23;4.28;;;10.60;99.90;;;;;;5028693;28;20052;-65
2023/01/05 13:10:03;;;;;;;18.17;4.30;;;10.60;99.90;;;;;;5006635;28;20137;-65
2023/01/05 13:12:30;;;;;;;29.23;5.03;;;10.60;99.90;;;;;;5018633;28;20080;-65
2023/01/05 13:15:17;;;;;;;23.42;4.70;;;10.60;99.90;;;;;;5023182;28;20037;-66
2023/01/05 13:17:48;;;;;;;19.75;4.25;;;10.70;99.90;;;;;;5022472;28;20038;-64
2023/01/05 13:20:35;;;;;;;24.13;4.47;;;10.70;99.90;;;;;;5014494;28;20088;-64
2023/01/05 13:23:13;;;;;;;24.23;4.20;;;10.70;99.90;;;;;;5025765;28;20124;-66
2023/01/05 13:25:48;;;;;;;22.23;4.40;;;10.70;99.90;;;;;;5023882;28;20045;-65
2023/01/05 13:28:19;;;;;;;27.50;4.05;;;10.70;99.90;;;;;;5010498;28;20557;-65
2023/01/05 13:31:10;;;;;;;21.83;4.30;;;10.70;99.90;;;;;;5024861;28;20034;-66